首页
METAR-TAF:

METAR-TAF

机场 :

克卢日-纳波卡, 罗马尼亚

纬度: 46-47N, 经度: 023-34E, 海拔: 315米

当前天气观测

该预报发布于25分钟前的20:30 UTC
风速2节,风向
温度 15°C
湿度 55%
气压 1014 hPa
能见度10公里或以上
1500米以下无云,无积雨云

METAR: LRCL 232030Z 01002KT CAVOK 15/06 Q1014

时间: 23:55 (20:55 UTC)

预报

该预报发布于55分钟前的20:00 UTC
预报有效从23日的 21点(UTC)到 24日的 06点(UTC)
风速4节,风向多变
能见度10公里或以上
多云层高于5500英尺

TAF: LRCL 232000Z 2321/2406 VRB04KT 9999 BKN055

超过4000个机场的气象观测和天气预报(METAR&TAF报告)。

可查询的气象台以黄色和红色小点在地图上表示。

将鼠标移到小点上方,可查看气象台名称。

然后点击查看天气观测和预报。

如需切换地图:点击带黑十字的绿色按钮放大地图;点击带横线的绿色按钮缩小地图;或者点击绿色箭头查看邻近地区的地图。


METAR-TAF: